Time;durP1;ratioP1;P1;durP2;ratioP2;P2;SDS_P1;SDS_P2;PMS_P1;PMS_P2;Temp;Humidity;BMP_temperature;BMP_pressure;BME280_temperature;BME280_humidity;BME280_pressure;Samples;Min_cycle;Max_cycle;Signal;HPM_P1;HPM_P2
2022/11/07 00:01:13;;;;;;;4.78;2.90;;;12.00;85.00;;;;;;5037028;28;20028;-69
2022/11/07 00:03:39;;;;;;;7.07;3.10;;;12.00;85.00;;;;;;5045319;28;20107;-71
2022/11/07 00:06:05;;;;;;;7.78;3.63;;;12.00;85.00;;;;;;5029491;28;20112;-71
2022/11/07 00:08:31;;;;;;;7.05;3.35;;;12.00;85.10;;;;;;5028981;28;20551;-69
2022/11/07 00:10:58;;;;;;;7.07;2.90;;;12.10;85.10;;;;;;5043936;28;20121;-70
2022/11/07 00:13:25;;;;;;;6.40;2.90;;;12.00;85.10;;;;;;5029316;28;20025;-71
2022/11/07 00:15:51;;;;;;;4.53;2.40;;;12.10;85.10;;;;;;5032913;28;20033;-70
2022/11/07 00:18:16;;;;;;;5.20;2.65;;;12.10;85.00;;;;;;5039748;28;20386;-69
2022/11/07 00:20:42;;;;;;;7.15;3.10;;;12.10;84.90;;;;;;5036296;28;21555;-70
2022/11/07 00:23:07;;;;;;;4.80;2.95;;;12.10;84.90;;;;;;5038705;28;20059;-69
2022/11/07 00:25:33;;;;;;;9.23;2.78;;;12.10;84.90;;;;;;5038072;28;20328;-70
2022/11/07 00:27:58;;;;;;;6.15;2.92;;;12.10;85.50;;;;;;5033044;28;20021;-69
2022/11/07 00:30:24;;;;;;;5.10;2.80;;;12.10;84.90;;;;;;5046792;28;20021;-71
2022/11/07 00:32:50;;;;;;;5.85;2.55;;;12.10;84.90;;;;;;5038492;28;20023;-70
2022/11/07 00:35:15;;;;;;;4.63;2.80;;;12.10;84.90;;;;;;5043499;28;20120;-69
2022/11/07 00:37:41;;;;;;;5.57;2.92;;;12.10;84.90;;;;;;5048626;28;20029;-70
2022/11/07 00:40:07;;;;;;;5.35;2.50;;;12.10;84.90;;;;;;5042899;28;20084;-68
2022/11/07 00:42:33;;;;;;;8.07;3.28;;;12.10;84.80;;;;;;5050050;28;20052;-71
2022/11/07 00:44:58;;;;;;;6.50;2.85;;;12.10;84.80;;;;;;5038974;28;20049;-70
2022/11/07 00:47:24;;;;;;;6.22;3.15;;;12.10;85.50;;;;;;5050810;28;20435;-70
2022/11/07 00:49:49;;;;;;;8.20;3.20;;;12.10;84.90;;;;;;5046730;28;20035;-71
2022/11/07 00:52:15;;;;;;;4.75;2.70;;;12.20;85.00;;;;;;5046339;28;20021;-70
2022/11/07 00:54:40;;;;;;;4.60;2.50;;;12.20;85.00;;;;;;5043705;28;20044;-71
2022/11/07 00:57:06;;;;;;;7.32;3.53;;;12.20;84.90;;;;;;5043851;28;20793;-69
2022/11/07 00:59:31;;;;;;;5.18;2.58;;;12.20;85.00;;;;;;5038651;28;20025;-69
2022/11/07 01:01:57;;;;;;;5.65;2.60;;;12.20;85.00;;;;;;5047204;28;20100;-70
2022/11/07 01:07:06;;;;;;;6.13;2.60;;;12.20;84.80;;;;;;5039251;28;20064;-70
2022/11/07 01:09:32;;;;;;;4.63;2.40;;;12.20;84.90;;;;;;5039501;28;20440;-70
2022/11/07 01:11:58;;;;;;;4.47;2.17;;;12.20;84.90;;;;;;5034379;28;20037;-70
2022/11/07 01:14:24;;;;;;;6.55;3.00;;;12.20;84.80;;;;;;5045750;28;20043;-70
2022/11/07 01:16:50;;;;;;;5.85;2.28;;;12.30;84.70;;;;;;5043762;28;20028;-70
2022/11/07 01:19:16;;;;;;;6.35;2.97;;;12.30;84.70;;;;;;5033473;28;20510;-70
2022/11/07 01:21:42;;;;;;;5.28;2.85;;;12.20;84.80;;;;;;5033745;28;20037;-70
2022/11/07 01:24:10;;;;;;;8.05;3.80;;;12.20;84.80;;;;;;5048105;28;20021;-70
2022/11/07 01:26:37;;;;;;;6.45;2.70;;;12.20;84.80;;;;;;5041867;28;20030;-70
2022/11/07 01:29:02;;;;;;;9.38;3.30;;;12.20;84.70;;;;;;5034086;28;20029;-70
2022/11/07 01:31:30;;;;;;;11.05;5.40;;;12.20;84.70;;;;;;5030524;28;20051;-70
2022/11/07 01:33:57;;;;;;;20.27;15.48;;;12.30;84.80;;;;;;5047094;28;20021;-71
2022/11/07 01:36:22;;;;;;;17.85;15.70;;;12.30;84.70;;;;;;5041718;28;20052;-69
2022/11/07 01:38:48;;;;;;;11.05;7.90;;;12.30;84.70;;;;;;5029718;28;20118;-69
2022/11/07 01:41:20;;;;;;;8.30;4.47;;;12.30;84.70;;;;;;5035070;28;20029;-70
2022/11/07 01:43:53;;;;;;;9.07;3.65;;;12.30;84.70;;;;;;5039362;28;20041;-71
2022/11/07 01:46:20;;;;;;;7.50;3.17;;;12.30;84.70;;;;;;5032239;28;20018;-70
2022/11/07 01:48:53;;;;;;;8.95;3.33;;;12.30;84.70;;;;;;5030915;28;20032;-71
2022/11/07 01:51:22;;;;;;;9.65;3.05;;;12.30;84.70;;;;;;5039252;28;20029;-69
2022/11/07 01:53:49;;;;;;;8.02;2.83;;;12.30;84.70;;;;;;5031675;28;20044;-71
2022/11/07 01:56:17;;;;;;;7.03;2.72;;;12.30;84.70;;;;;;5044357;28;20498;-70
2022/11/07 01:58:45;;;;;;;6.60;2.53;;;12.30;84.70;;;;;;5034024;28;20034;-70
2022/11/07 02:01:11;;;;;;;6.60;2.20;;;12.30;84.80;;;;;;5037217;28;20098;-70
2022/11/07 02:03:38;;;;;;;6.13;2.15;;;12.30;84.90;;;;;;5034596;28;20625;-71
2022/11/07 02:06:09;;;;;;;7.25;2.75;;;12.30;84.80;;;;;;5036667;28;20392;-69
2022/11/07 02:08:37;;;;;;;5.40;2.60;;;12.30;84.80;;;;;;4999002;28;1071110;-69
2022/11/07 02:11:04;;;;;;;5.28;2.35;;;12.30;84.70;;;;;;5038291;28;20036;-71
2022/11/07 02:13:31;;;;;;;4.72;2.47;;;12.30;84.70;;;;;;5048908;28;20055;-71
2022/11/07 02:16:02;;;;;;;7.82;2.50;;;12.30;84.70;;;;;;5042140;28;20017;-70
2022/11/07 02:18:29;;;;;;;7.07;2.97;;;12.30;84.70;;;;;;5030181;28;20035;-69
2022/11/07 02:20:58;;;;;;;7.15;2.50;;;12.30;84.70;;;;;;5030853;28;20529;-70
2022/11/07 02:23:38;;;;;;;4.60;2.15;;;12.30;84.80;;;;;;5038835;28;20472;-70
2022/11/07 02:26:04;;;;;;;4.55;2.10;;;12.20;84.80;;;;;;5031382;28;20588;-70
2022/11/07 02:28:31;;;;;;;4.97;2.10;;;12.20;84.80;;;;;;5048517;28;20036;-70
2022/11/07 02:30:57;;;;;;;5.03;2.30;;;12.30;84.80;;;;;;5048465;28;20029;-69
2022/11/07 02:33:23;;;;;;;6.18;2.20;;;12.20;84.80;;;;;;5034542;28;20043;-69
2022/11/07 02:35:50;;;;;;;6.55;2.45;;;12.20;84.80;;;;;;5042527;28;20108;-68
2022/11/07 02:38:20;;;;;;;7.32;2.60;;;12.30;84.90;;;;;;5047765;28;20028;-70
2022/11/07 02:40:54;;;;;;;7.60;2.63;;;12.20;84.80;;;;;;5042288;28;20018;-70
2022/11/07 02:43:22;;;;;;;7.65;2.85;;;12.20;85.00;;;;;;5043650;28;20549;-70
2022/11/07 02:45:49;;;;;;;7.95;3.00;;;12.20;84.90;;;;;;5047547;28;20036;-69
2022/11/07 02:48:15;;;;;;;6.30;2.55;;;12.20;85.10;;;;;;5046431;28;20063;-70
2022/11/07 02:50:43;;;;;;;7.47;2.45;;;12.20;85.20;;;;;;5045361;28;20021;-69
2022/11/07 02:53:09;;;;;;;7.82;3.17;;;12.20;85.20;;;;;;5038124;28;20029;-71
2022/11/07 02:55:35;;;;;;;4.25;2.30;;;12.10;85.20;;;;;;5046973;28;20021;-71
2022/11/07 02:58:00;;;;;;;5.93;2.50;;;12.20;85.30;;;;;;5033338;28;20434;-71
2022/11/07 03:00:26;;;;;;;9.52;2.80;;;12.20;85.30;;;;;;5032607;28;20036;-73
2022/11/07 03:02:52;;;;;;;4.65;2.60;;;12.20;85.30;;;;;;5036002;28;20478;-71
2022/11/07 03:05:19;;;;;;;8.27;3.20;;;12.10;85.40;;;;;;5044736;28;20033;-71
2022/11/07 03:07:46;;;;;;;7.82;3.13;;;12.10;85.50;;;;;;5040330;28;20472;-69
2022/11/07 03:10:13;;;;;;;6.50;2.40;;;12.10;85.60;;;;;;5045427;28;20029;-68
2022/11/07 03:12:38;;;;;;;7.05;3.10;;;12.10;85.60;;;;;;5031113;28;20055;-70
2022/11/07 03:15:06;;;;;;;5.35;2.33;;;12.10;85.60;;;;;;5041475;28;20024;-70
2022/11/07 03:17:32;;;;;;;7.35;2.88;;;12.10;85.60;;;;;;5040789;28;20033;-70
2022/11/07 03:19:57;;;;;;;6.55;2.40;;;12.10;85.50;;;;;;5043742;28;20032;-70
2022/11/07 03:22:23;;;;;;;4.35;2.45;;;12.00;85.60;;;;;;5048622;28;20025;-70
2022/11/07 03:24:49;;;;;;;7.70;3.10;;;12.00;85.60;;;;;;5037043;28;20096;-70
2022/11/07 03:27:14;;;;;;;5.25;2.65;;;12.00;85.70;;;;;;5037623;28;20471;-70
2022/11/07 03:29:40;;;;;;;6.90;2.75;;;12.00;85.90;;;;;;5042741;28;20112;-68
2022/11/07 03:32:06;;;;;;;9.70;2.97;;;12.00;85.90;;;;;;5044493;28;20112;-68
2022/11/07 03:34:32;;;;;;;8.15;3.00;;;12.00;85.90;;;;;;5039115;28;20152;-68
2022/11/07 03:36:57;;;;;;;6.85;2.50;;;12.00;86.00;;;;;;5030855;28;20477;-68
2022/11/07 03:39:24;;;;;;;8.15;2.80;;;12.00;86.00;;;;;;5033533;28;20391;-68
2022/11/07 03:41:49;;;;;;;6.75;2.65;;;12.00;86.00;;;;;;5036490;28;20021;-68
2022/11/07 03:44:15;;;;;;;7.60;3.10;;;12.00;86.00;;;;;;5036809;28;20022;-68
2022/11/07 03:46:40;;;;;;;7.68;3.08;;;12.00;86.00;;;;;;5031179;28;20025;-69
2022/11/07 03:49:07;;;;;;;7.32;3.40;;;12.00;86.00;;;;;;5042637;28;20021;-69
2022/11/07 03:51:33;;;;;;;7.07;2.85;;;12.00;86.10;;;;;;5036155;28;20064;-69
2022/11/07 03:53:59;;;;;;;8.63;3.20;;;12.00;86.10;;;;;;5035047;28;20055;-69
2022/11/07 03:56:24;;;;;;;8.60;2.95;;;12.10;86.10;;;;;;5030545;28;20484;-69
2022/11/07 03:58:50;;;;;;;7.07;2.80;;;12.10;86.30;;;;;;5031854;28;20546;-69
2022/11/07 04:01:16;;;;;;;5.93;2.55;;;12.10;86.30;;;;;;5043712;28;20683;-69
2022/11/07 04:03:41;;;;;;;7.82;2.90;;;12.10;86.90;;;;;;5047852;28;20056;-69
2022/11/07 04:06:07;;;;;;;7.13;2.63;;;12.20;86.30;;;;;;5030067;28;20017;-70
2022/11/07 04:08:32;;;;;;;9.55;3.25;;;12.10;86.30;;;;;;5045766;28;20460;-70
2022/11/07 04:10:58;;;;;;;7.28;3.05;;;12.20;86.40;;;;;;5038969;28;20420;-70
2022/11/07 04:18:55;;;;;;;8.85;2.92;;;12.30;86.10;;;;;;5029164;28;20068;-67
2022/11/07 04:21:21;;;;;;;8.25;2.53;;;12.20;86.10;;;;;;5028391;28;20060;-68
2022/11/07 04:23:46;;;;;;;7.32;2.20;;;12.20;86.10;;;;;;5030096;28;20049;-68
2022/11/07 04:28:57;;;;;;;7.53;2.83;;;12.20;86.20;;;;;;5041340;28;20143;-68
2022/11/07 04:31:22;;;;;;;7.13;2.58;;;12.20;86.20;;;;;;5034068;28;20033;-68
2022/11/07 04:33:48;;;;;;;6.65;2.45;;;12.20;86.20;;;;;;5038261;28;20037;-68
2022/11/07 04:36:14;;;;;;;9.80;2.92;;;12.20;86.30;;;;;;5037449;28;20038;-69
2022/11/07 04:38:39;;;;;;;7.05;2.70;;;12.20;86.30;;;;;;5048795;28;20043;-69
2022/11/07 04:41:05;;;;;;;9.88;2.88;;;12.20;86.30;;;;;;5039121;28;20022;-69
2022/11/07 04:43:31;;;;;;;8.70;2.60;;;12.30;86.30;;;;;;5029199;28;20071;-70
2022/11/07 04:45:56;;;;;;;6.32;2.10;;;12.30;86.20;;;;;;5036474;28;20543;-69
2022/11/07 04:48:22;;;;;;;9.13;2.72;;;12.30;86.00;;;;;;5030408;28;20034;-70
2022/11/07 04:50:48;;;;;;;7.72;2.45;;;12.30;86.00;;;;;;5036426;28;20032;-70
2022/11/07 04:53:16;;;;;;;9.18;2.65;;;12.30;86.00;;;;;;5041525;28;20060;-69
2022/11/07 04:55:42;;;;;;;8.25;2.78;;;12.30;86.00;;;;;;5038358;28;20388;-69
2022/11/07 04:58:09;;;;;;;8.55;2.95;;;12.40;85.90;;;;;;5043824;28;20051;-70
2022/11/07 05:00:35;;;;;;;7.32;2.70;;;12.40;85.90;;;;;;5042971;28;20656;-69
2022/11/07 05:03:00;;;;;;;10.60;2.65;;;12.40;85.90;;;;;;5030933;28;20167;-69
2022/11/07 05:05:26;;;;;;;8.73;2.40;;;12.40;85.90;;;;;;5043094;28;20499;-69
2022/11/07 05:07:51;;;;;;;10.23;3.28;;;12.40;85.80;;;;;;5043261;28;20463;-69
2022/11/07 05:10:23;;;;;;;8.55;2.50;;;12.40;85.80;;;;;;5048790;28;20418;-68
2022/11/07 05:12:49;;;;;;;4.40;2.10;;;12.40;85.90;;;;;;5041851;28;20032;-69
2022/11/07 05:15:15;;;;;;;7.07;2.03;;;12.50;85.80;;;;;;5044619;28;20374;-69
2022/11/07 05:17:42;;;;;;;6.80;2.30;;;12.50;85.70;;;;;;5039260;28;20106;-69
2022/11/07 05:20:30;;;;;;;7.32;2.42;;;12.50;85.60;;;;;;5051242;28;20029;-68
2022/11/07 05:23:13;;;;;;;6.03;2.08;;;12.50;85.60;;;;;;5044912;28;20021;-68
2022/11/07 05:25:40;;;;;;;8.75;2.63;;;12.50;85.50;;;;;;5035789;28;20687;-69
2022/11/07 05:28:06;;;;;;;8.55;2.80;;;12.60;85.60;;;;;;5031251;28;20021;-69
2022/11/07 05:30:31;;;;;;;8.73;2.40;;;12.50;85.60;;;;;;5033413;28;20032;-69
2022/11/07 05:32:57;;;;;;;8.55;2.42;;;12.50;85.50;;;;;;5031376;28;20163;-69
2022/11/07 05:35:23;;;;;;;10.70;2.60;;;12.50;85.60;;;;;;5035013;28;20032;-69
2022/11/07 05:37:48;;;;;;;7.72;2.40;;;12.60;85.70;;;;;;5049881;28;20039;-69
2022/11/07 05:40:14;;;;;;;7.47;2.47;;;12.60;85.70;;;;;;5050326;28;20103;-69
2022/11/07 05:42:40;;;;;;;10.70;3.00;;;12.60;85.60;;;;;;5039222;28;20127;-69
2022/11/07 05:45:06;;;;;;;5.28;2.13;;;12.50;85.60;;;;;;5034075;28;20014;-70
2022/11/07 05:47:32;;;;;;;10.93;2.97;;;12.60;85.70;;;;;;5044584;28;20025;-69
2022/11/07 05:49:57;;;;;;;10.82;2.85;;;12.50;85.70;;;;;;5048021;28;20043;-69
2022/11/07 05:52:23;;;;;;;9.82;2.80;;;12.50;85.70;;;;;;5044228;28;20037;-70
2022/11/07 05:54:48;;;;;;;8.70;2.40;;;12.50;85.60;;;;;;5030940;28;20044;-69
2022/11/07 05:57:14;;;;;;;11.27;2.70;;;12.50;85.70;;;;;;5046340;28;20060;-70
2022/11/07 05:59:39;;;;;;;6.75;2.20;;;12.50;85.70;;;;;;5042133;28;20028;-69
2022/11/07 06:02:05;;;;;;;9.98;3.20;;;12.50;85.70;;;;;;5037778;28;20017;-70
2022/11/07 06:04:31;;;;;;;8.50;2.78;;;12.50;85.70;;;;;;5048850;28;20037;-70
2022/11/07 06:06:56;;;;;;;8.95;2.85;;;12.50;85.70;;;;;;5038769;28;20017;-69
2022/11/07 06:09:22;;;;;;;7.45;2.30;;;12.50;85.60;;;;;;5049674;28;20037;-68
2022/11/07 06:11:48;;;;;;;9.25;2.67;;;12.60;85.70;;;;;;5047145;28;20022;-68
2022/11/07 06:14:13;;;;;;;9.90;2.85;;;12.60;85.60;;;;;;5041546;28;20136;-68
2022/11/07 06:16:39;;;;;;;9.10;2.90;;;12.60;85.50;;;;;;5049902;28;20041;-67
2022/11/07 06:19:04;;;;;;;10.95;2.70;;;12.60;85.40;;;;;;5037207;28;20024;-68
2022/11/07 06:21:31;;;;;;;10.15;2.75;;;12.60;85.50;;;;;;5051259;28;20025;-71
2022/11/07 06:23:58;;;;;;;12.32;3.47;;;12.60;85.40;;;;;;5031715;28;20029;-70
2022/11/07 06:26:23;;;;;;;8.88;2.72;;;12.60;85.50;;;;;;5031480;28;20022;-71
2022/11/07 06:28:49;;;;;;;9.10;2.22;;;12.60;85.40;;;;;;5038922;28;20021;-71
2022/11/07 06:31:15;;;;;;;13.07;3.00;;;12.60;85.40;;;;;;5050843;28;20064;-71
2022/11/07 06:33:40;;;;;;;11.60;2.45;;;12.60;85.30;;;;;;5044850;28;20028;-69
2022/11/07 06:36:08;;;;;;;8.77;3.00;;;12.60;85.30;;;;;;5049635;28;20105;-69
2022/11/07 06:38:34;;;;;;;8.05;2.60;;;12.60;85.40;;;;;;5049331;28;20582;-70
2022/11/07 06:41:07;;;;;;;10.10;3.20;;;12.60;85.30;;;;;;5036052;28;20029;-69
2022/11/07 06:43:33;;;;;;;8.45;2.50;;;12.60;85.40;;;;;;5042285;28;20029;-71
2022/11/07 06:46:02;;;;;;;9.63;2.70;;;12.60;85.40;;;;;;5040183;28;20028;-70
2022/11/07 06:48:28;;;;;;;18.45;4.25;;;12.60;85.30;;;;;;5041232;28;20033;-69
2022/11/07 06:51:01;;;;;;;10.20;3.50;;;12.60;85.30;;;;;;5041762;28;20510;-70
2022/11/07 06:53:26;;;;;;;10.50;3.33;;;12.60;85.40;;;;;;5030093;28;20112;-70
2022/11/07 06:55:53;;;;;;;12.43;2.97;;;12.60;85.50;;;;;;5037018;28;20112;-70
2022/11/07 06:58:19;;;;;;;9.93;2.53;;;12.60;85.50;;;;;;5039074;28;20037;-70
2022/11/07 07:00:44;;;;;;;10.77;2.55;;;12.60;85.50;;;;;;5029705;28;20063;-71
2022/11/07 07:03:11;;;;;;;9.30;2.75;;;12.60;85.50;;;;;;5037269;28;20383;-68
2022/11/07 07:05:36;;;;;;;9.68;3.47;;;12.60;85.40;;;;;;5030890;28;20026;-68
2022/11/07 07:08:03;;;;;;;9.48;2.47;;;12.60;85.40;;;;;;5037895;28;20086;-70
2022/11/07 07:10:29;;;;;;;6.38;2.35;;;12.60;85.40;;;;;;5045798;28;20064;-70
2022/11/07 07:12:55;;;;;;;8.85;2.35;;;12.60;85.40;;;;;;5044907;28;20075;-70
2022/11/07 07:15:21;;;;;;;9.88;2.80;;;12.70;85.40;;;;;;5048052;28;20102;-70
2022/11/07 07:17:46;;;;;;;11.80;2.95;;;12.70;85.30;;;;;;5039271;28;20021;-70
2022/11/07 07:20:12;;;;;;;7.93;2.38;;;12.60;85.40;;;;;;5036950;28;20068;-70
2022/11/07 07:22:37;;;;;;;11.65;3.28;;;12.70;85.40;;;;;;5033875;28;20059;-70
2022/11/07 07:25:03;;;;;;;9.75;2.90;;;12.70;85.40;;;;;;5042363;28;20032;-71
2022/11/07 07:27:29;;;;;;;8.57;2.60;;;12.60;85.40;;;;;;5039569;28;20028;-71
2022/11/07 07:29:54;;;;;;;7.88;2.50;;;12.70;85.40;;;;;;5045145;28;21504;-70
2022/11/07 07:32:20;;;;;;;6.53;2.10;;;12.70;85.40;;;;;;5041715;28;20025;-70
2022/11/07 07:34:46;;;;;;;12.27;3.05;;;12.70;85.30;;;;;;5043420;28;20056;-70
2022/11/07 07:37:11;;;;;;;12.02;3.45;;;12.80;85.20;;;;;;5042190;28;20542;-70
2022/11/07 07:39:37;;;;;;;12.27;2.95;;;12.80;85.20;;;;;;5041525;28;20040;-70
2022/11/07 07:42:02;;;;;;;11.45;2.50;;;12.80;85.00;;;;;;5043631;28;20432;-69
2022/11/07 07:44:28;;;;;;;11.77;3.60;;;12.90;85.00;;;;;;5033107;28;20029;-70
2022/11/07 07:46:53;;;;;;;8.82;2.60;;;12.80;85.00;;;;;;5042444;28;20067;-69
2022/11/07 07:49:19;;;;;;;9.02;2.25;;;12.80;85.00;;;;;;5034329;28;20041;-69
2022/11/07 07:51:44;;;;;;;11.20;2.53;;;12.90;85.00;;;;;;5041451;28;20045;-69
2022/11/07 07:54:10;;;;;;;7.75;3.08;;;12.90;85.10;;;;;;5042902;28;20021;-69
2022/11/07 07:56:36;;;;;;;6.28;2.13;;;12.90;85.00;;;;;;5045915;28;20032;-69
2022/11/07 07:59:02;;;;;;;11.73;2.80;;;12.90;85.00;;;;;;5044650;28;20025;-69
2022/11/07 08:01:28;;;;;;;7.90;2.38;;;13.00;85.70;;;;;;5035519;28;20036;-70
2022/11/07 08:03:54;;;;;;;8.30;2.08;;;13.00;85.10;;;;;;5039632;28;20418;-69
2022/11/07 08:06:19;;;;;;;8.88;2.80;;;13.00;85.10;;;;;;5036071;28;20029;-69
2022/11/07 08:08:45;;;;;;;8.77;2.47;;;13.00;84.90;;;;;;5039965;28;20064;-69
2022/11/07 08:11:10;;;;;;;6.63;2.30;;;13.10;84.90;;;;;;5041634;28;20040;-70
2022/11/07 08:13:36;;;;;;;13.27;3.28;;;13.10;84.80;;;;;;5044139;28;20029;-70
2022/11/07 08:16:04;;;;;;;8.00;2.72;;;13.20;84.70;;;;;;5042358;28;20025;-69
2022/11/07 08:18:29;;;;;;;12.60;3.22;;;13.20;84.60;;;;;;5042856;28;20037;-70
2022/11/07 08:20:55;;;;;;;6.88;2.70;;;13.20;84.60;;;;;;5045405;28;20025;-70
2022/11/07 08:23:22;;;;;;;9.02;3.00;;;13.30;84.50;;;;;;5041607;28;20111;-70
2022/11/07 08:25:50;;;;;;;9.15;2.42;;;13.30;84.40;;;;;;5045502;28;20036;-70
2022/11/07 08:28:16;;;;;;;8.50;2.78;;;13.30;84.30;;;;;;5042686;28;20119;-70
2022/11/07 08:30:42;;;;;;;10.82;2.97;;;13.40;84.20;;;;;;5041758;28;20037;-70
2022/11/07 08:33:08;;;;;;;8.68;2.67;;;13.40;84.10;;;;;;5040587;28;20025;-70
2022/11/07 08:35:33;;;;;;;10.35;2.90;;;13.50;84.00;;;;;;5042125;28;20021;-70
2022/11/07 08:37:59;;;;;;;9.73;2.53;;;13.50;83.90;;;;;;5046978;28;20399;-70
2022/11/07 08:40:25;;;;;;;8.18;3.33;;;13.50;83.80;;;;;;5048965;28;20443;-70
2022/11/07 08:42:50;;;;;;;10.38;2.65;;;13.50;83.70;;;;;;5050521;28;20104;-70
2022/11/07 08:45:16;;;;;;;9.85;3.13;;;13.60;83.70;;;;;;5050728;28;20470;-69
2022/11/07 08:47:42;;;;;;;9.32;2.50;;;13.60;83.60;;;;;;5040316;28;20562;-69
2022/11/07 08:50:08;;;;;;;6.60;2.22;;;13.60;83.50;;;;;;5042922;28;20041;-70
2022/11/07 08:52:34;;;;;;;10.10;3.38;;;13.70;83.50;;;;;;5049725;28;20100;-68
2022/11/07 08:55:01;;;;;;;7.32;2.38;;;13.70;83.40;;;;;;5039542;28;20503;-70
2022/11/07 08:57:26;;;;;;;8.65;2.47;;;13.70;83.30;;;;;;5040660;28;20029;-70
2022/11/07 08:59:52;;;;;;;8.05;2.25;;;13.70;83.30;;;;;;5036620;28;20389;-70
2022/11/07 09:02:17;;;;;;;11.50;2.65;;;13.80;83.40;;;;;;5039441;28;20525;-70
2022/11/07 09:04:43;;;;;;;8.80;2.88;;;13.80;83.20;;;;;;5038075;28;20025;-70
2022/11/07 09:07:08;;;;;;;8.68;2.50;;;13.80;83.20;;;;;;5043701;28;20021;-69
2022/11/07 09:09:34;;;;;;;8.50;2.75;;;13.90;83.20;;;;;;5042924;28;20040;-70
2022/11/07 09:12:00;;;;;;;10.68;2.95;;;13.90;83.10;;;;;;5039461;28;20021;-71
2022/11/07 09:14:26;;;;;;;6.20;1.95;;;13.90;83.00;;;;;;5039635;28;20033;-70
2022/11/07 09:16:51;;;;;;;8.73;2.40;;;14.00;83.00;;;;;;5041852;28;20032;-70
2022/11/07 09:19:17;;;;;;;9.30;2.70;;;13.90;82.80;;;;;;5039761;28;20049;-70
2022/11/07 09:21:44;;;;;;;6.53;2.17;;;14.00;82.80;;;;;;5036681;28;20053;-69
2022/11/07 09:24:10;;;;;;;8.95;2.60;;;14.00;82.80;;;;;;5042322;28;20076;-70
2022/11/07 09:26:35;;;;;;;9.25;2.35;;;14.10;82.70;;;;;;5050253;28;20021;-70
2022/11/07 09:29:01;;;;;;;10.50;2.75;;;14.10;82.50;;;;;;5045734;28;20041;-70
2022/11/07 09:31:26;;;;;;;9.40;2.33;;;14.20;82.40;;;;;;5034060;28;20109;-70
2022/11/07 09:33:52;;;;;;;13.05;2.65;;;14.10;82.40;;;;;;5043100;28;20499;-70
2022/11/07 09:36:17;;;;;;;6.65;1.88;;;14.10;82.50;;;;;;5042093;28;20040;-70
2022/11/07 09:38:43;;;;;;;6.22;2.33;;;14.10;82.50;;;;;;5032557;28;20040;-71
2022/11/07 09:41:45;;;;;;;9.05;2.55;;;14.10;82.60;;;;;;5043439;28;20188;-71
2022/11/07 09:44:35;;;;;;;7.80;2.38;;;14.10;82.60;;;;;;5032768;28;20038;-71
2022/11/07 09:47:13;;;;;;;10.52;2.80;;;14.10;82.70;;;;;;5043795;28;20040;-70
2022/11/07 09:49:41;;;;;;;9.85;2.72;;;14.10;82.70;;;;;;5039912;28;20033;-70
2022/11/07 09:52:16;;;;;;;9.65;2.40;;;14.10;82.70;;;;;;5036952;28;20052;-70
2022/11/07 09:54:54;;;;;;;9.45;2.60;;;14.10;82.70;;;;;;5038859;28;20028;-70
2022/11/07 09:57:19;;;;;;;8.98;2.20;;;14.10;82.70;;;;;;5041742;28;20040;-70
2022/11/07 09:59:56;;;;;;;5.70;2.13;;;14.10;82.70;;;;;;5041146;28;20021;-70
2022/11/07 10:02:28;;;;;;;8.52;2.45;;;14.20;82.70;;;;;;5037995;28;20032;-70
2022/11/07 10:04:58;;;;;;;6.18;2.10;;;14.30;82.70;;;;;;5048992;28;20048;-71
2022/11/07 10:07:41;;;;;;;8.43;2.53;;;14.30;82.50;;;;;;5045296;28;20071;-70
2022/11/07 10:10:20;;;;;;;7.10;1.83;;;14.40;82.50;;;;;;5045074;28;20504;-71
2022/11/07 10:13:11;;;;;;;6.22;2.47;;;14.40;82.50;;;;;;5040327;28;20033;-70
2022/11/07 10:16:00;;;;;;;9.45;2.40;;;14.40;82.40;;;;;;5042147;28;20021;-69
2022/11/07 10:18:52;;;;;;;10.32;2.63;;;14.40;82.40;;;;;;5036308;28;20100;-70
2022/11/07 10:21:57;;;;;;;8.32;2.33;;;14.30;82.40;;;;;;5041666;28;20021;-69
2022/11/07 10:24:42;;;;;;;8.43;2.33;;;14.30;82.40;;;;;;5038783;28;20368;-69
2022/11/07 10:27:10;;;;;;;7.93;2.40;;;14.30;82.60;;;;;;5036357;28;20036;-69
2022/11/07 10:29:49;;;;;;;7.50;2.55;;;14.30;82.70;;;;;;5035407;28;20024;-69
2022/11/07 10:32:20;;;;;;;6.88;2.03;;;14.30;82.80;;;;;;5041215;28;20030;-69
2022/11/07 10:34:52;;;;;;;8.00;2.50;;;14.30;82.90;;;;;;5049631;28;20383;-69
2022/11/07 10:37:17;;;;;;;10.13;2.70;;;14.30;82.90;;;;;;5037702;28;20036;-70
2022/11/07 10:39:43;;;;;;;11.27;3.22;;;14.30;83.00;;;;;;5039845;28;20483;-69
2022/11/07 10:42:12;;;;;;;9.48;2.78;;;14.30;83.10;;;;;;5040912;28;20029;-70
2022/11/07 10:44:40;;;;;;;8.73;3.13;;;14.30;83.10;;;;;;5047649;28;20018;-70
2022/11/07 10:47:22;;;;;;;8.70;2.45;;;14.30;83.10;;;;;;5043557;28;20017;-69
2022/11/07 10:50:04;;;;;;;10.35;2.95;;;14.30;83.20;;;;;;5041351;28;20032;-70
2022/11/07 10:52:29;;;;;;;7.90;2.47;;;14.30;83.10;;;;;;5038941;28;20365;-69
2022/11/07 10:55:07;;;;;;;6.25;2.35;;;14.30;83.20;;;;;;5041562;28;20032;-70
2022/11/07 10:57:34;;;;;;;6.70;2.50;;;14.30;83.10;;;;;;5038190;28;20025;-70
2022/11/07 11:00:00;;;;;;;7.50;2.40;;;14.30;83.00;;;;;;5036574;28;20099;-70
2022/11/07 11:02:26;;;;;;;8.73;3.03;;;14.40;82.90;;;;;;5032432;28;20021;-70
2022/11/07 11:04:57;;;;;;;10.45;2.53;;;14.40;82.90;;;;;;5041369;28;20055;-69
2022/11/07 11:07:36;;;;;;;5.97;2.70;;;14.50;83.00;;;;;;5044400;28;20115;-70
2022/11/07 11:10:16;;;;;;;8.05;2.80;;;14.50;82.60;;;;;;5039918;28;20024;-69
2022/11/07 11:12:45;;;;;;;7.50;2.58;;;14.50;82.40;;;;;;5039058;28;20053;-69
2022/11/07 11:15:18;;;;;;;8.38;2.50;;;14.60;82.50;;;;;;5034976;28;20041;-70
2022/11/07 11:17:44;;;;;;;11.45;3.33;;;14.60;82.40;;;;;;5040717;28;20029;-69
2022/11/07 11:20:33;;;;;;;8.07;2.70;;;14.70;82.20;;;;;;5043332;28;20399;-69
2022/11/07 11:23:00;;;;;;;9.00;2.83;;;14.70;82.00;;;;;;5043848;28;20028;-70
2022/11/07 11:25:25;;;;;;;9.35;3.03;;;14.80;81.80;;;;;;5042424;28;20412;-70
2022/11/07 11:28:03;;;;;;;11.88;3.10;;;14.80;81.50;;;;;;5047827;28;20052;-70
2022/11/07 11:30:31;;;;;;;10.90;3.08;;;14.80;82.10;;;;;;5031113;28;20509;-69
2022/11/07 11:33:14;;;;;;;11.40;2.90;;;14.80;81.10;;;;;;5037972;28;20443;-70
2022/11/07 11:35:59;;;;;;;8.55;2.50;;;14.80;81.30;;;;;;5044337;28;20071;-70
2022/11/07 11:38:35;;;;;;;8.82;2.50;;;14.80;81.30;;;;;;5037240;28;20053;-70
2022/11/07 11:41:33;;;;;;;9.68;2.97;;;14.70;81.30;;;;;;5046402;28;20439;-69
2022/11/07 11:44:09;;;;;;;7.63;2.38;;;14.80;81.40;;;;;;5029443;28;20467;-70
2022/11/07 11:46:49;;;;;;;9.80;2.55;;;14.80;81.40;;;;;;5040133;28;20025;-70
2022/11/07 11:49:23;;;;;;;8.50;2.58;;;14.80;81.50;;;;;;5038791;28;20414;-70
2022/11/07 11:51:54;;;;;;;10.13;2.90;;;14.80;81.40;;;;;;5044446;28;20017;-70
2022/11/07 11:54:20;;;;;;;11.20;3.30;;;14.90;81.20;;;;;;5038970;28;20049;-70
2022/11/07 11:57:03;;;;;;;7.65;2.50;;;14.90;81.10;;;;;;5042715;28;20107;-70
2022/11/07 11:59:47;;;;;;;7.03;2.50;;;15.00;81.00;;;;;;5039830;28;20115;-72
2022/11/07 12:02:31;;;;;;;9.38;2.83;;;15.00;80.90;;;;;;5044494;28;20037;-70
2022/11/07 12:05:08;;;;;;;7.72;2.60;;;15.00;80.60;;;;;;5042407;28;20672;-70
2022/11/07 12:07:55;;;;;;;8.90;2.58;;;15.10;80.50;;;;;;5036588;28;20028;-70
2022/11/07 12:10:26;;;;;;;9.38;2.63;;;15.10;80.40;;;;;;5037633;28;20126;-70
2022/11/07 12:13:16;;;;;;;7.47;2.40;;;15.10;80.50;;;;;;5041737;28;20057;-70
2022/11/07 12:16:11;;;;;;;9.55;2.60;;;15.10;80.60;;;;;;5041686;28;20056;-70
2022/11/07 12:18:55;;;;;;;5.50;2.20;;;15.10;80.50;;;;;;5036069;28;20045;-70
2022/11/07 12:21:35;;;;;;;9.73;3.10;;;15.10;80.50;;;;;;5050800;28;20032;-70
2022/11/07 12:24:12;;;;;;;7.38;2.33;;;15.10;80.40;;;;;;5048408;28;20127;-70
2022/11/07 12:27:10;;;;;;;12.23;3.08;;;15.10;80.30;;;;;;5049042;28;20028;-71
2022/11/07 12:30:03;;;;;;;9.60;3.03;;;15.10;80.10;;;;;;5045601;28;20032;-70
2022/11/07 12:32:47;;;;;;;9.52;2.85;;;15.10;80.00;;;;;;5045508;28;20114;-71
2022/11/07 12:35:29;;;;;;;10.90;3.17;;;15.10;79.90;;;;;;5047590;28;20500;-70
2022/11/07 12:38:24;;;;;;;7.65;2.38;;;15.10;80.00;;;;;;5047889;28;20103;-70
2022/11/07 12:41:06;;;;;;;9.50;2.60;;;15.20;80.10;;;;;;5048243;28;20074;-70
2022/11/07 12:44:10;;;;;;;9.45;2.45;;;15.20;80.00;;;;;;5047172;28;20078;-70
2022/11/07 12:46:58;;;;;;;13.13;3.03;;;15.20;80.50;;;;;;5041528;28;20488;-72
2022/11/07 12:49:38;;;;;;;8.40;2.63;;;15.20;79.60;;;;;;5040634;28;20025;-71
2022/11/07 12:52:25;;;;;;;12.13;2.55;;;15.20;79.50;;;;;;5046984;28;20033;-72
2022/11/07 12:55:19;;;;;;;8.88;2.60;;;15.20;79.50;;;;;;5045748;28;20025;-71
2022/11/07 12:57:48;;;;;;;10.32;2.22;;;15.30;79.50;;;;;;5044783;28;20430;-71
2022/11/07 13:00:24;;;;;;;12.68;2.90;;;15.30;79.30;;;;;;5037913;28;20476;-71
2022/11/07 13:03:11;;;;;;;9.60;2.75;;;15.30;79.30;;;;;;5042068;28;20583;-71
2022/11/07 13:05:46;;;;;;;8.63;2.88;;;15.40;79.30;;;;;;5041729;28;20036;-71
2022/11/07 13:08:37;;;;;;;9.43;3.78;;;15.40;79.00;;;;;;5044168;28;20024;-72